createdAt,value
2023-02-11T00:01:00.695Z,20.53
2023-02-11T00:03:27.599Z,20.37
2023-02-11T00:06:03.652Z,19.87
2023-02-11T00:08:30.666Z,19.43
2023-02-11T00:10:58.890Z,18.90
2023-02-11T00:13:25.726Z,18.93
2023-02-11T00:15:53.700Z,19.47
2023-02-11T00:18:20.961Z,18.60
2023-02-11T00:20:47.844Z,17.73
2023-02-11T00:23:15.472Z,17.83
2023-02-11T00:25:43.793Z,18.50
2023-02-11T00:28:11.296Z,17.70
2023-02-11T00:30:38.313Z,16.97
2023-02-11T00:33:05.229Z,16.30
2023-02-11T00:35:32.100Z,17.73
2023-02-11T00:37:58.961Z,17.80
2023-02-11T00:40:25.839Z,16.30
2023-02-11T00:42:52.624Z,16.97
2023-02-11T00:45:21.285Z,16.77
2023-02-11T00:47:48.432Z,16.40
2023-02-11T00:50:15.440Z,16.87
2023-02-11T00:52:42.338Z,16.00
2023-02-11T00:55:09.671Z,15.23
2023-02-11T00:57:36.558Z,15.40
2023-02-11T01:00:05.852Z,15.50
2023-02-11T01:02:32.916Z,15.03
2023-02-11T01:05:00.309Z,15.43
2023-02-11T01:07:28.170Z,15.57
2023-02-11T01:09:55.048Z,15.50
2023-02-11T01:12:21.905Z,15.83
2023-02-11T01:14:48.851Z,15.50
2023-02-11T01:17:15.958Z,15.00
2023-02-11T01:19:42.887Z,15.77
2023-02-11T01:22:09.907Z,15.63
2023-02-11T01:24:36.758Z,15.77
2023-02-11T01:27:03.720Z,15.20
2023-02-11T01:29:30.597Z,15.83
2023-02-11T01:31:57.559Z,14.33
2023-02-11T01:34:24.403Z,15.30
2023-02-11T01:36:51.260Z,13.47
2023-02-11T01:39:18.149Z,14.53
2023-02-11T01:41:45.004Z,14.40
2023-02-11T01:44:40.264Z,13.90
2023-02-11T01:47:07.680Z,14.03
2023-02-11T01:49:39.601Z,14.07
2023-02-11T01:52:13.507Z,13.23
2023-02-11T01:55:05.115Z,12.97
2023-02-11T01:57:35.483Z,13.83
2023-02-11T02:00:24.295Z,12.33
2023-02-11T02:03:06.360Z,13.13
2023-02-11T02:05:56.977Z,12.63
2023-02-11T02:08:46.991Z,11.53
2023-02-11T02:11:14.084Z,11.93
2023-02-11T02:13:40.992Z,12.47
2023-02-11T02:16:13.699Z,11.93
2023-02-11T02:19:00.133Z,11.43
2023-02-11T02:21:32.739Z,11.30
2023-02-11T02:24:13.867Z,11.50
2023-02-11T02:27:02.784Z,11.23
2023-02-11T02:29:57.253Z,11.43
2023-02-11T02:32:39.280Z,10.90
2023-02-11T02:35:13.485Z,10.13
2023-02-11T02:37:55.444Z,10.40
2023-02-11T02:40:50.767Z,11.57
2023-02-11T02:43:19.590Z,10.20
2023-02-11T02:45:46.424Z,11.13
2023-02-11T02:48:24.085Z,11.00
2023-02-11T02:50:55.340Z,11.73
2023-02-11T02:53:51.052Z,11.03
2023-02-11T02:56:35.291Z,10.63
2023-02-11T02:59:29.717Z,11.27
2023-02-11T03:02:12.696Z,11.40
2023-02-11T03:04:52.458Z,11.47
2023-02-11T03:07:27.740Z,11.10
2023-02-11T03:10:09.329Z,10.83
2023-02-11T03:12:37.615Z,11.23
2023-02-11T03:15:06.876Z,10.53
2023-02-11T03:17:36.196Z,11.30
2023-02-11T03:20:06.011Z,11.03
2023-02-11T03:22:41.510Z,10.43
2023-02-11T03:25:09.673Z,10.83
2023-02-11T03:27:48.454Z,10.37
2023-02-11T03:30:30.307Z,10.40
2023-02-11T03:33:31.043Z,10.37
2023-02-11T03:36:02.693Z,11.23
2023-02-11T03:38:38.134Z,10.67
2023-02-11T03:41:08.108Z,11.03
2023-02-11T03:43:40.855Z,9.77
2023-02-11T03:46:10.779Z,10.50
2023-02-11T03:48:42.369Z,10.83
2023-02-11T03:51:12.488Z,9.97
2023-02-11T03:53:43.123Z,10.30
2023-02-11T03:56:14.822Z,10.70
2023-02-11T03:58:41.671Z,10.60
2023-02-11T04:01:09.918Z,10.93
2023-02-11T04:03:36.905Z,11.00
2023-02-11T04:06:03.842Z,11.23
2023-02-11T04:08:31.940Z,11.43
2023-02-11T04:10:58.982Z,11.43
2023-02-11T04:13:26.075Z,12.27
2023-02-11T04:15:53.176Z,11.73
2023-02-11T04:18:20.140Z,11.80
2023-02-11T04:20:47.441Z,11.27
2023-02-11T04:23:14.212Z,12.33
2023-02-11T04:25:41.060Z,12.40
2023-02-11T04:28:07.844Z,12.80
2023-02-11T04:30:34.703Z,12.73
2023-02-11T04:33:01.542Z,12.57
2023-02-11T04:35:28.358Z,13.27
2023-02-11T04:37:55.185Z,13.10
2023-02-11T04:40:21.978Z,13.47
2023-02-11T04:42:48.792Z,13.10
2023-02-11T04:45:15.668Z,13.53
2023-02-11T04:47:42.484Z,14.40
2023-02-11T04:50:09.497Z,13.10
2023-02-11T04:52:36.308Z,13.67
2023-02-11T04:55:03.095Z,13.30
2023-02-11T04:57:29.936Z,13.77
2023-02-11T04:59:56.783Z,14.03
2023-02-11T05:02:23.551Z,14.00
2023-02-11T05:04:50.361Z,14.53
2023-02-11T05:07:17.187Z,14.73
2023-02-11T05:09:44.000Z,14.33
2023-02-11T05:12:10.807Z,13.67
2023-02-11T05:14:37.753Z,15.03
2023-02-11T05:17:04.558Z,13.87
2023-02-11T05:19:32.050Z,14.57
2023-02-11T05:22:03.047Z,14.73
2023-02-11T05:24:32.555Z,14.93
2023-02-11T05:26:59.955Z,14.43
2023-02-11T05:29:26.816Z,13.57
2023-02-11T05:31:54.062Z,14.63
2023-02-11T05:34:20.850Z,13.83
2023-02-11T05:36:47.722Z,13.83
2023-02-11T05:39:14.533Z,13.80
2023-02-11T05:41:41.397Z,14.03
2023-02-11T05:44:08.254Z,13.90
2023-02-11T05:46:35.144Z,13.73
2023-02-11T05:49:02.335Z,13.50
2023-02-11T05:51:29.276Z,14.20
2023-02-11T05:53:56.118Z,14.33
2023-02-11T05:56:22.891Z,14.63
2023-02-11T05:58:49.794Z,13.87
2023-02-11T06:01:16.765Z,14.27
2023-02-11T06:03:43.576Z,13.47
2023-02-11T06:06:12.363Z,14.00
2023-02-11T06:08:39.609Z,14.20
2023-02-11T06:11:06.740Z,14.53
2023-02-11T06:13:33.629Z,15.53
2023-02-11T06:16:02.090Z,14.30
2023-02-11T06:18:29.537Z,14.37
2023-02-11T06:20:56.717Z,13.40
2023-02-11T06:23:23.735Z,15.00
2023-02-11T06:25:52.136Z,15.23
2023-02-11T06:28:19.895Z,14.23
2023-02-11T06:30:46.815Z,14.70
2023-02-11T06:33:13.647Z,14.93
2023-02-11T06:35:44.469Z,15.60
2023-02-11T06:38:14.508Z,15.33
2023-02-11T06:40:41.965Z,15.17
2023-02-11T06:43:08.770Z,15.03
2023-02-11T06:45:35.552Z,16.43
2023-02-11T06:48:02.376Z,15.53
2023-02-11T06:50:29.321Z,16.07
2023-02-11T06:52:56.165Z,16.37
2023-02-11T06:55:22.975Z,16.57
2023-02-11T06:57:49.796Z,16.67
2023-02-11T07:00:17.070Z,15.77
2023-02-11T07:02:44.087Z,16.60
2023-02-11T07:05:11.150Z,15.90
2023-02-11T07:07:38.276Z,16.47
2023-02-11T07:10:05.937Z,16.63
2023-02-11T07:12:32.851Z,16.00
2023-02-11T07:15:02.938Z,17.53
2023-02-11T07:17:29.878Z,17.10
2023-02-11T07:19:56.784Z,18.00
2023-02-11T07:22:23.612Z,17.87
2023-02-11T07:24:50.566Z,17.80
2023-02-11T07:27:17.453Z,18.27
2023-02-11T07:29:46.107Z,17.87
2023-02-11T07:32:13.879Z,16.93
2023-02-11T07:34:40.771Z,17.13
2023-02-11T07:37:07.891Z,18.37
2023-02-11T07:39:34.774Z,17.93
2023-02-11T07:42:01.589Z,18.40
2023-02-11T07:44:28.377Z,18.83
2023-02-11T07:46:55.521Z,19.27
2023-02-11T07:49:22.313Z,20.17
2023-02-11T07:51:51.138Z,20.03
2023-02-11T07:54:18.148Z,19.23
2023-02-11T07:56:45.140Z,20.63
2023-02-11T07:59:12.507Z,20.83
2023-02-11T08:01:40.442Z,20.77
2023-02-11T08:04:07.285Z,21.67
2023-02-11T08:06:35.441Z,21.07
2023-02-11T08:09:08.006Z,21.37
2023-02-11T08:11:35.335Z,20.60
2023-02-11T08:14:02.361Z,22.20
2023-02-11T08:16:35.680Z,21.97
2023-02-11T08:19:06.388Z,23.67
2023-02-11T08:21:33.257Z,22.30
2023-02-11T08:24:03.060Z,24.30
2023-02-11T08:26:33.171Z,23.13
2023-02-11T08:29:00.876Z,24.63
2023-02-11T08:31:34.554Z,23.50
2023-02-11T08:34:05.489Z,25.30
2023-02-11T08:36:35.514Z,24.50
2023-02-11T08:39:18.706Z,25.03
2023-02-11T08:41:52.601Z,26.03
2023-02-11T08:44:21.343Z,25.33
2023-02-11T08:46:48.652Z,25.63
2023-02-11T08:49:16.020Z,26.00
2023-02-11T08:51:42.926Z,26.27
2023-02-11T08:54:10.180Z,26.27
2023-02-11T08:56:38.546Z,27.07
2023-02-11T08:59:06.406Z,28.07
2023-02-11T09:01:36.837Z,27.17
2023-02-11T09:04:04.911Z,27.43
2023-02-11T09:06:32.290Z,27.90
2023-02-11T09:09:02.506Z,27.67
2023-02-11T09:11:35.193Z,28.07
2023-02-11T09:14:03.633Z,27.47
2023-02-11T09:16:33.156Z,27.27
2023-02-11T09:19:01.974Z,27.43
2023-02-11T09:21:29.765Z,27.87
2023-02-11T09:23:56.840Z,27.07
2023-02-11T09:26:27.350Z,25.73
2023-02-11T09:28:54.273Z,26.30
2023-02-11T09:31:24.201Z,26.07
2023-02-11T09:33:53.713Z,25.70
2023-02-11T09:36:23.549Z,24.83
2023-02-11T09:38:54.700Z,24.90
2023-02-11T09:41:52.286Z,25.87
2023-02-11T09:44:23.258Z,24.83
2023-02-11T09:47:02.014Z,25.17
2023-02-11T09:49:42.939Z,23.83
2023-02-11T09:52:15.587Z,23.90
2023-02-11T09:54:57.859Z,24.50
2023-02-11T09:57:34.486Z,24.43
2023-02-11T10:00:02.440Z,25.60
2023-02-11T10:02:45.076Z,24.17
2023-02-11T10:05:37.568Z,25.23
2023-02-11T10:08:16.563Z,26.37
2023-02-11T10:10:54.362Z,26.97
2023-02-11T10:13:51.183Z,27.40
2023-02-11T10:16:26.903Z,28.07
2023-02-11T10:19:18.794Z,26.10
2023-02-11T10:21:58.529Z,26.73
2023-02-11T10:24:28.354Z,26.77
2023-02-11T10:26:55.746Z,27.87
2023-02-11T10:29:38.605Z,27.13
2023-02-11T10:32:15.823Z,26.17
2023-02-11T10:34:42.739Z,27.53
2023-02-11T10:37:13.445Z,25.97
2023-02-11T10:39:41.270Z,28.17
2023-02-11T10:42:12.439Z,26.30
2023-02-11T10:44:46.230Z,26.90
2023-02-11T10:47:22.892Z,28.07
2023-02-11T10:49:50.064Z,25.70
2023-02-11T10:52:25.856Z,26.63
2023-02-11T10:55:14.873Z,27.13
2023-02-11T10:58:00.874Z,27.17
2023-02-11T11:00:41.063Z,26.57
2023-02-11T11:03:20.767Z,25.57
2023-02-11T11:05:57.384Z,26.03
2023-02-11T11:08:46.674Z,27.13
2023-02-11T11:11:21.381Z,28.57
2023-02-11T11:13:54.445Z,26.63
2023-02-11T11:16:39.125Z,27.77
2023-02-11T11:19:08.866Z,26.80
2023-02-11T11:21:35.640Z,28.40
2023-02-11T11:24:03.955Z,28.33
2023-02-11T11:26:46.815Z,27.87
2023-02-11T11:29:28.705Z,29.80
2023-02-11T11:31:59.536Z,29.23
2023-02-11T11:34:29.453Z,30.20
2023-02-11T11:36:58.183Z,29.10
2023-02-11T11:39:28.719Z,28.50
2023-02-11T11:42:01.495Z,29.77
2023-02-11T11:44:33.733Z,31.20
2023-02-11T11:47:12.584Z,29.87
2023-02-11T11:50:00.351Z,29.80
2023-02-11T11:52:42.406Z,29.80
2023-02-11T11:55:16.272Z,32.30
2023-02-11T11:57:43.882Z,29.90
2023-02-11T12:00:17.755Z,31.87
2023-02-11T12:02:56.733Z,31.60
2023-02-11T12:05:36.135Z,32.17
2023-02-11T12:08:17.911Z,31.33
2023-02-11T12:11:09.194Z,31.50
2023-02-11T12:13:59.239Z,30.73
2023-02-11T12:16:53.373Z,30.73
2023-02-11T12:19:59.679Z,31.20
2023-02-11T12:22:52.541Z,31.63
2023-02-11T12:25:30.917Z,30.00
2023-02-11T12:28:26.160Z,29.90
2023-02-11T12:31:19.361Z,29.93
2023-02-11T12:34:15.194Z,30.23
2023-02-11T12:37:08.078Z,30.33
2023-02-11T12:39:37.789Z,30.20
2023-02-11T12:42:43.024Z,28.67
2023-02-11T12:45:12.538Z,29.00
2023-02-11T12:47:58.186Z,29.27
2023-02-11T12:51:09.708Z,29.07
2023-02-11T12:53:54.742Z,29.43
2023-02-11T12:56:28.257Z,28.93
2023-02-11T12:58:58.970Z,28.97
2023-02-11T13:01:39.638Z,28.43
2023-02-11T13:04:16.272Z,27.83
2023-02-11T13:06:59.488Z,27.90
2023-02-11T13:09:43.570Z,27.20
2023-02-11T13:12:31.937Z,28.40
2023-02-11T13:15:04.721Z,27.70
2023-02-11T13:17:48.327Z,27.17
2023-02-11T13:20:21.577Z,28.03
2023-02-11T13:23:01.851Z,27.13
2023-02-11T13:25:42.809Z,26.63
2023-02-11T13:28:25.211Z,28.17
2023-02-11T13:31:03.504Z,28.33
2023-02-11T13:33:39.687Z,27.23
2023-02-11T13:36:06.671Z,28.83
2023-02-11T13:38:34.253Z,30.23
2023-02-11T13:41:30.509Z,28.53
2023-02-11T13:44:22.340Z,30.33
2023-02-11T13:47:01.561Z,31.50
2023-02-11T13:49:41.404Z,30.87
2023-02-11T13:52:38.024Z,31.03
2023-02-11T13:55:13.916Z,29.27
2023-02-11T13:57:42.666Z,30.93
2023-02-11T14:00:34.638Z,30.40
2023-02-11T14:03:29.403Z,30.37
2023-02-11T14:07:05.726Z,31.37
2023-02-11T14:09:40.223Z,31.20
2023-02-11T14:12:36.263Z,31.93
2023-02-11T14:15:07.901Z,31.83
2023-02-11T14:17:35.068Z,31.43
2023-02-11T14:20:04.757Z,32.37
2023-02-11T14:22:44.413Z,32.10
2023-02-11T14:25:38.581Z,31.50
2023-02-11T14:28:32.911Z,30.60
2023-02-11T14:31:13.384Z,30.47
2023-02-11T14:33:49.225Z,32.93
2023-02-11T14:36:53.457Z,31.03
2023-02-11T14:39:29.125Z,31.40
2023-02-11T14:41:57.409Z,30.30
2023-02-11T14:44:30.101Z,31.03
2023-02-11T14:46:58.133Z,30.63
2023-02-11T14:49:37.992Z,30.37
2023-02-11T14:52:17.208Z,30.07
2023-02-11T14:54:45.192Z,29.40
2023-02-11T14:57:19.207Z,30.57
2023-02-11T15:00:02.935Z,30.27
2023-02-11T15:02:34.532Z,30.20
2023-02-11T15:05:19.415Z,30.67
2023-02-11T15:07:55.785Z,29.53
2023-02-11T15:10:36.092Z,30.33
2023-02-11T15:13:04.410Z,30.43
2023-02-11T15:15:36.948Z,32.60
2023-02-11T15:18:05.267Z,29.73
2023-02-11T15:20:33.604Z,29.77
2023-02-11T15:23:10.074Z,30.50
2023-02-11T15:25:55.547Z,32.17
2023-02-11T15:28:29.353Z,30.77
2023-02-11T15:30:58.360Z,29.87
2023-02-11T15:33:30.505Z,30.97
2023-02-11T15:35:58.253Z,29.73
2023-02-11T15:38:25.163Z,30.53
2023-02-11T15:41:00.432Z,32.50
2023-02-11T15:43:46.586Z,30.37
2023-02-11T15:46:16.772Z,30.33
2023-02-11T15:48:47.508Z,30.73
2023-02-11T15:51:31.645Z,30.77
2023-02-11T15:54:15.748Z,31.23
2023-02-11T15:56:44.856Z,30.37
2023-02-11T15:59:35.993Z,30.73
2023-02-11T16:02:23.429Z,30.30
2023-02-11T16:05:26.985Z,30.03
2023-02-11T16:07:54.302Z,30.93
2023-02-11T16:10:36.648Z,30.57
2023-02-11T16:13:09.642Z,30.10
2023-02-11T16:15:47.099Z,29.80
2023-02-11T16:18:38.746Z,30.97
2023-02-11T16:21:14.842Z,30.10
2023-02-11T16:23:44.643Z,29.50
2023-02-11T16:26:43.174Z,29.97
2023-02-11T16:29:28.073Z,29.07
2023-02-11T16:32:10.245Z,30.27
2023-02-11T16:34:37.354Z,29.27
2023-02-11T16:37:05.839Z,30.10
2023-02-11T16:39:33.520Z,28.70
2023-02-11T16:42:05.808Z,28.27
2023-02-11T16:44:35.020Z,28.10
2023-02-11T16:47:09.411Z,27.17
2023-02-11T16:49:41.411Z,28.43
2023-02-11T16:52:13.757Z,27.97
2023-02-11T16:54:40.647Z,27.63
2023-02-11T16:57:19.036Z,27.33
2023-02-11T16:59:46.610Z,27.13
2023-02-11T17:02:23.989Z,26.93
2023-02-11T17:04:56.452Z,26.60
2023-02-11T17:07:23.315Z,26.50
2023-02-11T17:09:52.259Z,27.63
2023-02-11T17:12:19.800Z,26.57
2023-02-11T17:14:50.765Z,26.43
2023-02-11T17:17:29.823Z,26.83
2023-02-11T17:19:59.862Z,24.93
2023-02-11T17:22:26.768Z,25.07
2023-02-11T17:24:57.111Z,26.00
2023-02-11T17:27:24.146Z,26.70
2023-02-11T17:29:51.977Z,25.50
2023-02-11T17:32:18.884Z,25.70
2023-02-11T17:34:45.806Z,24.77
2023-02-11T17:37:12.642Z,25.63
2023-02-11T17:39:40.437Z,24.70
2023-02-11T17:42:08.657Z,24.43
2023-02-11T17:44:35.941Z,23.77
2023-02-11T17:47:09.245Z,24.83
2023-02-11T17:49:36.379Z,23.87
2023-02-11T17:52:03.709Z,24.00
2023-02-11T17:54:31.500Z,23.13
2023-02-11T17:56:58.722Z,23.53
2023-02-11T17:59:26.554Z,23.87
2023-02-11T18:01:53.456Z,24.77
2023-02-11T18:04:20.595Z,24.47
2023-02-11T18:06:47.853Z,24.53
2023-02-11T18:09:15.307Z,24.00
2023-02-11T18:11:42.229Z,24.10
2023-02-11T18:14:10.532Z,23.77
2023-02-11T18:16:39.413Z,24.47
2023-02-11T18:19:07.703Z,24.67
2023-02-11T18:21:34.898Z,24.67
2023-02-11T18:24:06.535Z,24.37
2023-02-11T18:26:34.697Z,24.40
2023-02-11T18:29:02.020Z,24.67
2023-02-11T18:31:29.993Z,23.83
2023-02-11T18:33:57.024Z,24.50
2023-02-11T18:36:29.618Z,25.10
2023-02-11T18:38:58.409Z,25.23
2023-02-11T18:41:25.294Z,23.77
2023-02-11T18:43:52.762Z,24.50
2023-02-11T18:46:19.894Z,25.07
2023-02-11T18:48:46.788Z,24.57
2023-02-11T18:51:18.747Z,24.37
2023-02-11T18:53:46.331Z,24.37
2023-02-11T18:56:15.876Z,24.07
2023-02-11T18:58:42.916Z,25.07
2023-02-11T19:01:19.618Z,23.60
2023-02-11T19:03:47.324Z,22.83
2023-02-11T19:06:35.409Z,23.03
2023-02-11T19:09:06.641Z,22.63
2023-02-11T19:11:49.918Z,22.60
2023-02-11T19:14:20.995Z,21.00
2023-02-11T19:16:50.586Z,21.33
2023-02-11T19:19:18.558Z,21.73
2023-02-11T19:21:46.448Z,20.53
2023-02-11T19:24:15.645Z,20.03
2023-02-11T19:26:43.140Z,20.47
2023-02-11T19:29:10.069Z,19.60
2023-02-11T19:31:37.183Z,19.57
2023-02-11T19:34:04.944Z,20.33
2023-02-11T19:36:32.022Z,18.10
2023-02-11T19:39:03.909Z,18.67
2023-02-11T19:41:31.900Z,17.30
2023-02-11T19:43:58.774Z,16.67
2023-02-11T19:46:28.434Z,18.73
2023-02-11T19:48:55.459Z,18.03
2023-02-11T19:51:22.488Z,16.53
2023-02-11T19:53:49.424Z,16.27
2023-02-11T19:56:19.176Z,16.43
2023-02-11T19:58:47.269Z,14.83
2023-02-11T20:01:22.162Z,14.53
2023-02-11T20:03:50.618Z,14.00
2023-02-11T20:06:23.288Z,12.33
2023-02-11T20:08:58.812Z,12.13
2023-02-11T20:11:28.246Z,11.90
2023-02-11T20:13:55.763Z,11.20
2023-02-11T20:16:26.999Z,11.63
2023-02-11T20:19:00.953Z,10.67
2023-02-11T20:21:32.774Z,11.30
2023-02-11T20:24:00.035Z,11.37
2023-02-11T20:26:29.483Z,11.33
2023-02-11T20:28:58.057Z,11.07
2023-02-11T20:31:25.240Z,10.23
2023-02-11T20:33:52.373Z,10.47
2023-02-11T20:36:21.983Z,11.00
2023-02-11T20:38:49.327Z,10.53
2023-02-11T20:41:20.397Z,11.43
2023-02-11T20:43:51.915Z,11.13
2023-02-11T20:46:23.925Z,10.73
2023-02-11T20:48:52.881Z,10.73
2023-02-11T20:51:22.588Z,11.10
2023-02-11T20:53:51.242Z,11.17
2023-02-11T20:56:23.981Z,10.60
2023-02-11T20:58:51.382Z,10.40
2023-02-11T21:01:22.004Z,10.53
2023-02-11T21:03:58.219Z,10.90
2023-02-11T21:06:27.825Z,10.73
2023-02-11T21:08:54.652Z,10.53
2023-02-11T21:11:22.521Z,9.93
2023-02-11T21:13:49.805Z,9.63
2023-02-11T21:16:20.524Z,9.27
2023-02-11T21:18:48.479Z,9.17
2023-02-11T21:21:16.405Z,9.23
2023-02-11T21:23:43.419Z,9.10
2023-02-11T21:26:10.942Z,10.00
2023-02-11T21:28:40.892Z,9.40
2023-02-11T21:31:08.335Z,8.90
2023-02-11T21:33:35.459Z,9.37
2023-02-11T21:36:04.800Z,8.00
2023-02-11T21:38:31.838Z,6.13
2023-02-11T21:41:04.556Z,4.40
2023-02-11T21:43:31.724Z,3.73
2023-02-11T21:45:59.037Z,2.87
2023-02-11T21:48:26.669Z,2.20
2023-02-11T21:50:54.324Z,2.60
2023-02-11T21:53:21.160Z,1.87
2023-02-11T21:55:54.919Z,1.90
2023-02-11T21:58:22.065Z,1.70
2023-02-11T22:01:13.702Z,1.60
2023-02-11T22:03:41.310Z,1.83
2023-02-11T22:06:10.464Z,1.57
2023-02-11T22:08:38.154Z,2.10
2023-02-11T22:11:07.222Z,1.60
2023-02-11T22:13:38.350Z,1.50
2023-02-11T22:16:08.478Z,1.60
2023-02-11T22:18:35.597Z,1.30
2023-02-11T22:21:11.644Z,1.60
2023-02-11T22:23:39.622Z,1.70
2023-02-11T22:26:12.135Z,1.70
2023-02-11T22:28:40.674Z,1.90
2023-02-11T22:31:12.955Z,1.97
2023-02-11T22:33:40.165Z,1.97
2023-02-11T22:36:12.211Z,2.10
2023-02-11T22:38:39.138Z,2.10
2023-02-11T22:41:08.898Z,1.67
2023-02-11T22:43:36.620Z,2.00
2023-02-11T22:46:05.582Z,1.80
2023-02-11T22:48:33.465Z,1.90
2023-02-11T22:51:19.535Z,1.60
2023-02-11T22:53:55.291Z,1.80
2023-02-11T22:56:22.263Z,1.70
2023-02-11T22:58:49.577Z,1.50
2023-02-11T23:01:17.392Z,1.60
2023-02-11T23:03:44.675Z,1.70
2023-02-11T23:06:12.076Z,1.30
2023-02-11T23:08:40.273Z,1.40
2023-02-11T23:11:10.062Z,1.30
2023-02-11T23:13:39.645Z,1.87
2023-02-11T23:16:09.173Z,1.50
2023-02-11T23:18:37.711Z,1.37
2023-02-11T23:21:10.096Z,1.30
2023-02-11T23:23:38.247Z,1.23
2023-02-11T23:26:05.306Z,1.20
2023-02-11T23:28:32.154Z,1.20
2023-02-11T23:30:59.536Z,1.00
2023-02-11T23:33:29.735Z,0.90
2023-02-11T23:35:56.758Z,1.10
2023-02-11T23:38:23.749Z,1.10
2023-02-11T23:40:50.544Z,1.07
2023-02-11T23:43:17.404Z,1.30
2023-02-11T23:45:44.171Z,1.10
2023-02-11T23:48:11.048Z,1.20
2023-02-11T23:50:39.738Z,1.10
2023-02-11T23:53:06.575Z,1.10
2023-02-11T23:55:39.931Z,1.10
2023-02-11T23:58:06.816Z,1.40
